Time;durP1;ratioP1;P1;durP2;ratioP2;P2;SDS_P1;SDS_P2;PMS_P1;PMS_P2;Temp;Humidity;BMP_temperature;BMP_pressure;BME280_temperature;BME280_humidity;BME280_pressure;Samples;Min_cycle;Max_cycle;Signal;HPM_P1;HPM_P2
2022/05/09 00:00:25;;;;;;;0.10;0.08;;;;;;;11.11;75.33;100261.72;4991095;28;20432;-80
2022/05/09 00:02:55;;;;;;;0.70;0.15;;;;;;;11.14;75.46;100262.63;4990829;28;20496;-81
2022/05/09 00:05:27;;;;;;;0.20;0.10;;;;;;;11.11;76.67;100259.13;4990695;28;20077;-78
2022/05/09 00:07:55;;;;;;;0.10;0.10;;;;;;;11.14;76.58;100252.25;4990415;28;20140;-79
2022/05/09 00:10:26;;;;;;;0.13;0.10;;;;;;;11.19;77.29;100246.31;4990985;28;20093;-78
2022/05/09 00:12:55;;;;;;;0.30;0.10;;;;;;;11.21;77.11;100256.72;4990488;28;20110;-83
2022/05/09 00:15:24;;;;;;;0.55;0.20;;;;;;;11.24;78.23;100251.59;4975445;28;20089;-78
2022/05/09 00:17:54;;;;;;;0.10;0.10;;;;;;;11.20;79.59;100249.78;4970687;28;20141;-78
2022/05/09 00:20:22;;;;;;;0.65;0.20;;;;;;;11.09;79.45;100247.88;4971075;28;20043;-77
2022/05/09 00:22:54;;;;;;;0.32;0.20;;;;;;;11.11;81.88;100256.53;4971397;28;20047;-83
2022/05/09 00:25:25;;;;;;;0.20;0.20;;;;;;;11.07;80.60;100248.69;4970875;28;20131;-81
2022/05/09 00:27:53;;;;;;;0.15;0.13;;;;;;;10.97;78.77;100252.81;4972367;28;20055;-81
2022/05/09 00:30:22;;;;;;;0.15;0.10;;;;;;;10.97;80.69;100255.41;4971738;28;20190;-81
2022/05/09 00:32:51;;;;;;;0.22;0.20;;;;;;;10.93;82.03;100263.94;4970721;28;20500;-83
2022/05/09 00:35:21;;;;;;;0.10;0.03;;;;;;;10.97;82.84;100268.34;4970554;28;20050;-81
2022/05/09 00:37:50;;;;;;;1.83;0.60;;;;;;;11.07;83.06;100270.25;4970822;28;20089;-77
2022/05/09 00:40:18;;;;;;;0.20;0.20;;;;;;;11.04;80.97;100259.84;4972240;28;20500;-81
2022/05/09 00:42:48;;;;;;;1.00;0.28;;;;;;;11.17;82.02;100285.97;4991186;28;20081;-82
2022/05/09 00:45:17;;;;;;;0.20;0.17;;;;;;;11.23;79.56;100281.78;4993569;28;20050;-81
2022/05/09 00:47:47;;;;;;;0.20;0.20;;;;;;;11.28;79.07;100271.53;4990005;28;20056;-80
2022/05/09 00:50:21;;;;;;;0.10;0.10;;;;;;;11.21;79.20;100267.94;4990530;28;20116;-85
2022/05/09 00:52:58;;;;;;;0.22;0.10;;;;;;;11.28;79.89;100274.09;4982762;28;20050;-79
2022/05/09 00:55:37;;;;;;;0.13;0.10;;;;;;;11.38;77.10;100270.84;4970680;28;20058;-78
2022/05/09 00:58:12;;;;;;;0.43;0.13;;;;;;;11.48;78.43;100282.25;4969996;28;20452;-80
2022/05/09 01:00:44;;;;;;;0.10;0.10;;;;;;;11.56;77.90;100282.38;4970896;28;20074;-80
2022/05/09 01:03:16;;;;;;;0.17;0.17;;;;;;;11.55;74.98;100281.53;4970352;28;20460;-81
2022/05/09 01:05:50;;;;;;;0.38;0.20;;;;;;;11.53;72.71;100285.78;4970391;28;20106;-78
2022/05/09 01:08:20;;;;;;;0.32;0.20;;;;;;;11.51;74.10;100288.34;4969843;28;20054;-78
2022/05/09 01:10:49;;;;;;;0.35;0.25;;;;;;;11.47;72.92;100299.50;4969233;28;20054;-77
2022/05/09 01:13:21;;;;;;;0.30;0.20;;;;;;;11.44;74.03;100317.59;4969434;28;20240;-80
2022/05/09 01:15:54;;;;;;;0.88;0.40;;;;;;;11.37;73.77;100323.50;4970096;28;20048;-82
2022/05/09 01:18:23;;;;;;;0.20;0.20;;;;;;;11.25;70.58;100320.69;4969725;28;20134;-78
2022/05/09 01:20:52;;;;;;;0.40;0.30;;;;;;;11.09;69.31;100315.19;4969894;28;20054;-79
2022/05/09 01:23:22;;;;;;;0.55;0.32;;;;;;;10.94;69.99;100319.16;4970391;28;20498;-78
2022/05/09 01:25:52;;;;;;;2.05;0.70;;;;;;;10.75;68.64;100323.09;4969403;28;20055;-78
2022/05/09 01:28:20;;;;;;;1.17;0.28;;;;;;;10.55;69.37;100320.91;4969803;28;20493;-78
2022/05/09 01:30:59;;;;;;;0.40;0.40;;;;;;;10.20;72.38;100320.94;4969533;28;20051;-80
2022/05/09 01:33:34;;;;;;;0.80;0.40;;;;;;;9.84;75.90;100297.66;4969395;28;20047;-78
2022/05/09 01:36:06;;;;;;;2.42;0.50;;;;;;;9.79;77.76;100310.44;4969437;28;20066;-81
2022/05/09 01:38:41;;;;;;;0.35;0.25;;;;;;;9.56;79.63;100302.13;4969846;28;20587;-80
2022/05/09 01:41:09;;;;;;;0.68;0.30;;;;;;;9.56;78.71;100312.44;4967119;28;20540;-78
2022/05/09 01:43:41;;;;;;;0.22;0.20;;;;;;;9.55;79.45;100307.22;4970559;28;20129;-77
2022/05/09 01:46:12;;;;;;;0.67;0.20;;;;;;;9.50;80.21;100317.44;4970117;28;20477;-78
2022/05/09 01:51:27;;;;;;;0.20;0.20;;;;;;;9.50;82.87;100321.72;4969688;28;20069;-80
2022/05/09 01:53:57;;;;;;;0.43;0.30;;;;;;;9.51;82.53;100323.50;4969465;28;20493;-79
2022/05/09 01:56:28;;;;;;;0.32;0.25;;;;;;;9.52;82.72;100331.28;4969478;28;20491;-79
2022/05/09 01:58:57;;;;;;;2.15;0.50;;;;;;;9.52;83.43;100331.28;4969903;28;20055;-78
2022/05/09 02:01:28;;;;;;;0.57;0.20;;;;;;;9.52;84.06;100330.41;4967007;28;20134;-77
2022/05/09 02:03:58;;;;;;;1.05;0.52;;;;;;;9.42;82.72;100335.31;4969376;28;20078;-78
2022/05/09 02:06:26;;;;;;;1.95;0.45;;;;;;;9.31;83.70;100328.97;4969516;28;20607;-80
2022/05/09 02:08:56;;;;;;;0.40;0.20;;;;;;;9.26;85.47;100348.63;4968903;28;20098;-80
2022/05/09 02:11:25;;;;;;;0.60;0.28;;;;;;;9.25;85.80;100351.16;4968592;28;20137;-81
2022/05/09 02:13:53;;;;;;;0.80;0.47;;;;;;;9.17;83.50;100344.09;4968639;28;20111;-80
2022/05/09 02:16:22;;;;;;;0.25;0.22;;;;;;;9.16;86.30;100342.34;4969180;28;20669;-80
2022/05/09 02:18:50;;;;;;;2.08;0.40;;;;;;;9.16;87.41;100339.78;4969342;28;20130;-78
2022/05/09 02:21:19;;;;;;;0.80;0.40;;;;;;;9.17;88.01;100343.22;4971038;28;20102;-79
2022/05/09 02:23:47;;;;;;;0.43;0.20;;;;;;;9.13;87.27;100342.25;4972796;28;20047;-79
2022/05/09 02:26:18;;;;;;;0.60;0.22;;;;;;;9.05;89.58;100333.41;4972405;28;20653;-75
2022/05/09 02:28:46;;;;;;;2.58;0.43;;;;;;;8.97;96.00;100330.59;4973187;28;20153;-83
2022/05/09 02:31:15;;;;;;;0.57;0.30;;;;;;;8.98;97.38;100341.81;4961894;28;20055;-78
2022/05/09 02:33:44;;;;;;;0.40;0.20;;;;;;;9.05;96.88;100332.53;4953313;29;20138;-78
2022/05/09 02:36:12;;;;;;;0.32;0.22;;;;;;;9.17;97.56;100340.63;4953989;28;20138;-74
2022/05/09 02:38:41;;;;;;;2.47;0.70;;;;;;;9.27;98.75;100342.63;4959799;28;20082;-77
2022/05/09 02:41:09;;;;;;;1.05;0.50;;;;;;;9.28;97.46;100352.16;4974335;28;20050;-76
2022/05/09 02:43:39;;;;;;;0.63;0.50;;;;;;;9.33;96.88;100345.41;4992580;28;20105;-76
2022/05/09 02:46:08;;;;;;;0.70;0.40;;;;;;;9.31;96.63;100346.19;4991938;28;20042;-75
2022/05/09 02:48:38;;;;;;;1.25;0.45;;;;;;;9.24;96.03;100350.31;4991991;28;20081;-77
2022/05/09 02:51:07;;;;;;;0.60;0.50;;;;;;;9.19;97.76;100345.00;4992103;28;20050;-77
2022/05/09 02:53:37;;;;;;;0.75;0.40;;;;;;;9.15;97.22;100350.03;4991513;28;20128;-78
2022/05/09 02:56:06;;;;;;;0.55;0.30;;;;;;;9.15;97.12;100355.19;4991867;28;20097;-76
2022/05/09 02:58:35;;;;;;;0.75;0.60;;;;;;;9.20;98.18;100359.66;4991994;28;20050;-77
2022/05/09 03:01:06;;;;;;;1.05;0.40;;;;;;;9.21;96.47;100355.38;4992098;28;20444;-77
2022/05/09 03:06:19;;;;;;;1.90;0.20;;;;;;;9.28;93.89;100367.63;4952991;29;20114;-76
2022/05/09 03:08:48;;;;;;;1.17;0.47;;;;;;;9.29;94.63;100353.88;4953138;29;20059;-77
2022/05/09 03:11:16;;;;;;;0.35;0.25;;;;;;;9.26;94.26;100361.53;4952462;29;20062;-76
2022/05/09 03:13:44;;;;;;;0.55;0.30;;;;;;;9.20;96.15;100359.66;4954137;28;20059;-77
2022/05/09 03:16:14;;;;;;;1.63;0.65;;;;;;;9.18;98.42;100363.03;4971803;28;20157;-75
2022/05/09 03:18:43;;;;;;;0.70;0.38;;;;;;;9.10;96.63;100364.53;4971845;28;20126;-76
2022/05/09 03:21:11;;;;;;;1.02;0.40;;;;;;;9.01;97.34;100366.00;4971610;28;20106;-75
2022/05/09 03:23:40;;;;;;;0.88;0.65;;;;;;;8.97;97.83;100371.88;4971322;28;20505;-75
2022/05/09 03:26:08;;;;;;;0.77;0.60;;;;;;;8.95;98.75;100376.13;4971625;28;20055;-77
2022/05/09 03:28:37;;;;;;;0.95;0.47;;;;;;;8.93;99.47;100382.06;4972059;28;20093;-76
2022/05/09 03:31:05;;;;;;;0.55;0.47;;;;;;;8.85;100.00;100384.44;4971897;28;20086;-76
2022/05/09 03:33:35;;;;;;;0.60;0.40;;;;;;;8.80;100.00;100386.88;4970965;28;20050;-76
2022/05/09 03:36:04;;;;;;;1.48;0.85;;;;;;;8.76;100.00;100386.72;4972869;28;20055;-76
2022/05/09 03:38:33;;;;;;;1.45;0.80;;;;;;;8.73;100.00;100391.81;4952688;29;20326;-76
2022/05/09 03:41:02;;;;;;;1.00;0.52;;;;;;;8.72;100.00;100396.06;4952702;29;20051;-76
2022/05/09 03:43:31;;;;;;;3.55;0.60;;;;;;;8.71;100.00;100393.47;4952547;29;20513;-76
2022/05/09 03:46:00;;;;;;;0.85;0.30;;;;;;;8.69;100.00;100398.56;4952014;29;20055;-77
2022/05/09 03:48:29;;;;;;;0.28;0.28;;;;;;;8.67;100.00;100396.75;4933526;29;20063;-77
2022/05/09 03:51:01;;;;;;;2.53;0.65;;;;;;;8.62;100.00;100401.78;4933226;29;20055;-76
2022/05/09 03:53:30;;;;;;;2.53;0.73;;;;;;;8.53;100.00;100404.94;4945126;29;20055;-76
2022/05/09 03:55:59;;;;;;;0.63;0.50;;;;;;;8.49;100.00;100403.06;4952051;29;20098;-76
2022/05/09 03:58:27;;;;;;;1.55;0.55;;;;;;;8.46;100.00;100408.16;4951758;29;20082;-76
2022/05/09 04:00:56;;;;;;;1.38;0.82;;;;;;;8.40;100.00;100413.09;4951575;29;20138;-76
2022/05/09 04:03:24;;;;;;;0.90;0.57;;;;;;;8.37;100.00;100413.84;4951628;29;20497;-76
2022/05/09 04:05:53;;;;;;;0.38;0.32;;;;;;;8.36;100.00;100418.94;4951853;29;20497;-76
2022/05/09 04:08:24;;;;;;;1.25;0.57;;;;;;;8.33;100.00;100422.28;4950908;29;20051;-76
2022/05/09 04:10:55;;;;;;;1.05;0.50;;;;;;;8.31;100.00;100423.06;4952153;29;20054;-77
2022/05/09 04:13:23;;;;;;;1.23;0.52;;;;;;;8.28;100.00;100430.72;4951058;29;20055;-77
2022/05/09 04:18:39;;;;;;;1.17;0.70;;;;;;;8.18;100.00;100429.53;4945113;29;20137;-76
2022/05/09 04:21:08;;;;;;;0.95;0.52;;;;;;;8.15;100.00;100429.41;4951310;29;20090;-75
2022/05/09 04:23:39;;;;;;;0.77;0.50;;;;;;;8.09;100.00;100431.78;4950833;29;20079;-76
2022/05/09 04:26:08;;;;;;;1.38;0.60;;;;;;;8.05;100.00;100441.09;4951345;29;20047;-76
2022/05/09 04:28:36;;;;;;;0.88;0.52;;;;;;;8.03;100.00;100437.59;4950917;29;20116;-76
2022/05/09 04:31:05;;;;;;;2.17;0.60;;;;;;;8.00;100.00;100445.22;4951331;29;20086;-76
2022/05/09 04:33:33;;;;;;;2.28;0.45;;;;;;;7.96;100.00;100446.81;4953107;29;20073;-75
2022/05/09 04:36:02;;;;;;;0.68;0.43;;;;;;;7.93;100.00;100446.72;4956309;28;20092;-77
2022/05/09 04:38:30;;;;;;;2.70;0.50;;;;;;;7.90;100.00;100450.88;4970850;28;20121;-76
2022/05/09 04:41:02;;;;;;;0.55;0.40;;;;;;;7.86;100.00;100455.06;4967637;28;20050;-76
2022/05/09 04:43:31;;;;;;;1.38;0.50;;;;;;;7.82;100.00;100454.88;4970582;28;20489;-76
2022/05/09 04:46:00;;;;;;;0.50;0.40;;;;;;;7.79;100.00;100465.06;4970108;28;20050;-76
2022/05/09 04:48:29;;;;;;;0.50;0.40;;;;;;;7.72;100.00;100462.28;4970613;28;20556;-76
2022/05/09 04:50:58;;;;;;;0.88;0.68;;;;;;;7.70;100.00;100466.50;4970181;28;20547;-75
2022/05/09 04:53:27;;;;;;;0.57;0.40;;;;;;;7.66;100.00;100467.19;4970001;28;20085;-76
2022/05/09 04:55:58;;;;;;;0.90;0.75;;;;;;;7.62;100.00;100485.06;4970129;28;20126;-76
2022/05/09 04:58:29;;;;;;;0.98;0.65;;;;;;;7.59;100.00;100485.81;4970276;28;20514;-76
2022/05/09 05:00:57;;;;;;;0.90;0.60;;;;;;;7.54;100.00;100492.50;4970502;28;20042;-76
2022/05/09 05:03:26;;;;;;;1.23;0.57;;;;;;;7.49;100.00;100488.88;4969527;28;20109;-78
2022/05/09 05:05:54;;;;;;;2.65;1.20;;;;;;;7.45;100.00;100487.03;4970443;28;20058;-78
2022/05/09 05:08:23;;;;;;;1.30;0.80;;;;;;;7.38;100.00;100496.19;4969458;28;20134;-78
2022/05/09 05:10:54;;;;;;;1.50;1.23;;;;;;;7.36;100.00;100502.13;4969875;28;20134;-77
2022/05/09 05:13:23;;;;;;;1.77;0.75;;;;;;;7.30;100.00;100489.88;4969887;28;20047;-77
2022/05/09 05:16:02;;;;;;;4.40;1.45;;;;;;;7.22;100.00;100497.31;4965670;28;20583;-76
2022/05/09 05:18:32;;;;;;;1.63;1.13;;;;;;;7.14;100.00;100506.41;4970024;28;20137;-75
2022/05/09 05:21:08;;;;;;;1.45;0.98;;;;;;;7.13;100.00;100502.09;4969639;28;20079;-75
2022/05/09 05:23:37;;;;;;;2.22;1.40;;;;;;;7.13;100.00;100505.53;4969169;28;20061;-75
2022/05/09 05:26:05;;;;;;;1.85;1.23;;;;;;;7.13;100.00;100504.66;4969370;28;20046;-75
2022/05/09 05:28:34;;;;;;;2.88;1.10;;;;;;;7.14;100.00;100514.13;4970234;28;20054;-75
2022/05/09 05:31:16;;;;;;;4.07;0.77;;;;;;;7.11;100.00;100511.44;4969733;28;20153;-74
2022/05/09 05:33:45;;;;;;;1.98;1.27;;;;;;;7.01;100.00;100507.63;4972992;28;20047;-75
2022/05/09 05:36:20;;;;;;;5.82;1.55;;;;;;;7.02;100.00;100521.38;4971099;28;20890;-75
2022/05/09 05:38:55;;;;;;;3.60;1.27;;;;;;;6.96;100.00;100522.00;4969291;28;20126;-75
2022/05/09 05:41:24;;;;;;;2.78;1.00;;;;;;;6.91;100.00;100523.50;4972461;28;20431;-75
2022/05/09 05:43:52;;;;;;;2.30;1.10;;;;;;;6.90;100.00;100530.34;4988802;28;20089;-75
2022/05/09 05:46:22;;;;;;;1.60;1.15;;;;;;;6.86;100.00;100530.16;4988782;28;20082;-75
2022/05/09 05:48:51;;;;;;;1.20;0.98;;;;;;;6.89;100.00;100536.31;4989549;28;20050;-74
2022/05/09 05:51:20;;;;;;;1.60;0.73;;;;;;;6.88;100.00;100539.69;4989447;28;20058;-75
2022/05/09 05:53:48;;;;;;;2.00;1.10;;;;;;;6.85;100.00;100539.56;4988548;28;20050;-75
2022/05/09 05:56:17;;;;;;;3.22;1.08;;;;;;;6.81;100.00;100536.81;4991484;28;20085;-75
2022/05/09 05:58:45;;;;;;;1.80;1.15;;;;;;;6.75;100.00;100542.56;4993079;28;20125;-75
2022/05/09 06:01:14;;;;;;;1.77;1.17;;;;;;;6.72;100.00;100542.47;4993225;28;20218;-75
2022/05/09 06:03:44;;;;;;;1.83;1.08;;;;;;;6.68;100.00;100543.13;4993066;28;20051;-75
2022/05/09 06:06:13;;;;;;;1.55;1.13;;;;;;;6.67;100.00;100546.53;4993114;28;20563;-75
2022/05/09 06:08:43;;;;;;;2.30;1.00;;;;;;;6.65;100.00;100541.31;4992310;28;20076;-75
2022/05/09 06:11:13;;;;;;;2.63;1.30;;;;;;;6.61;100.00;100538.56;4992446;28;20503;-75
2022/05/09 06:13:42;;;;;;;2.72;1.30;;;;;;;6.60;100.00;100541.97;4991282;28;20050;-75
2022/05/09 06:16:10;;;;;;;1.90;1.10;;;;;;;6.58;100.00;100543.59;4972861;28;20113;-75
2022/05/09 06:18:39;;;;;;;2.58;1.08;;;;;;;6.55;100.00;100538.28;4972840;28;20098;-75
2022/05/09 06:21:09;;;;;;;1.85;0.90;;;;;;;6.48;100.00;100543.19;4973004;28;20055;-75
2022/05/09 06:23:37;;;;;;;4.40;1.08;;;;;;;6.42;100.00;100542.03;4973140;28;20046;-75
2022/05/09 06:26:06;;;;;;;3.17;1.15;;;;;;;6.39;100.00;100547.94;4972887;28;20055;-75
2022/05/09 06:28:34;;;;;;;2.22;0.85;;;;;;;6.34;100.00;100538.25;4973116;28;20082;-75
2022/05/09 06:31:03;;;;;;;3.80;1.05;;;;;;;6.32;100.00;100545.88;4977264;28;20050;-74
2022/05/09 06:33:32;;;;;;;3.90;0.90;;;;;;;6.32;100.00;100539.88;4974359;28;20055;-74
2022/05/09 06:36:01;;;;;;;3.22;1.50;;;;;;;6.30;100.00;100542.41;4973703;28;20492;-74
2022/05/09 06:38:31;;;;;;;0.93;0.80;;;;;;;6.29;100.00;100540.63;4945842;28;20062;-74
2022/05/09 06:41:01;;;;;;;1.58;1.00;;;;;;;6.26;100.00;100546.53;4961293;28;20563;-74
2022/05/09 06:43:30;;;;;;;3.20;1.08;;;;;;;6.22;100.00;100547.19;4973317;28;20051;-74
2022/05/09 06:45:59;;;;;;;2.75;1.17;;;;;;;6.20;100.00;100551.38;4972465;28;20051;-74
2022/05/09 06:48:28;;;;;;;4.22;0.98;;;;;;;6.19;100.00;100548.75;4934418;29;20104;-74
2022/05/09 06:50:57;;;;;;;5.32;1.55;;;;;;;6.19;100.00;100559.03;4934325;29;20052;-74
2022/05/09 06:53:25;;;;;;;1.40;1.20;;;;;;;6.14;100.00;100555.38;4945442;29;20047;-74
2022/05/09 06:55:55;;;;;;;2.47;1.30;;;;;;;6.10;100.00;100563.78;4953623;29;20409;-74
2022/05/09 06:58:25;;;;;;;3.30;1.27;;;;;;;6.07;100.00;100565.41;4953423;29;20138;-74
2022/05/09 07:00:55;;;;;;;3.45;1.35;;;;;;;6.07;100.00;100575.66;4953101;29;20127;-74
2022/05/09 07:03:23;;;;;;;4.15;1.15;;;;;;;6.08;100.00;100569.69;4953089;29;20051;-74
2022/05/09 07:05:54;;;;;;;2.17;0.80;;;;;;;6.10;100.00;100574.06;4953322;29;20540;-74
2022/05/09 07:08:23;;;;;;;2.65;1.25;;;;;;;6.12;100.00;100580.13;4951981;28;20047;-74
2022/05/09 07:10:52;;;;;;;1.95;0.90;;;;;;;6.11;100.00;100581.81;4953218;29;20051;-74
2022/05/09 07:13:22;;;;;;;2.25;0.90;;;;;;;6.08;100.00;100577.41;4952359;29;20087;-75
2022/05/09 07:15:50;;;;;;;2.17;0.90;;;;;;;6.04;100.00;100580.66;4953032;29;20138;-74
2022/05/09 07:18:18;;;;;;;0.77;0.70;;;;;;;6.03;100.00;100586.59;4952657;29;20662;-74
2022/05/09 07:20:47;;;;;;;1.80;0.80;;;;;;;6.04;100.00;100590.91;4952951;29;20126;-75
2022/05/09 07:23:15;;;;;;;0.80;0.68;;;;;;;6.02;100.00;100587.41;4952294;29;20105;-75
2022/05/09 07:25:44;;;;;;;1.90;0.95;;;;;;;5.90;100.00;100576.56;4953118;29;20135;-75
2022/05/09 07:28:21;;;;;;;3.08;0.60;;;;;;;6.00;100.00;100593.28;4952604;29;20047;-74
2022/05/09 07:30:52;;;;;;;1.27;0.70;;;;;;;6.03;100.00;100598.56;4955347;29;20066;-74
2022/05/09 07:33:21;;;;;;;2.78;0.60;;;;;;;6.00;100.00;100594.19;4953338;29;20583;-75
2022/05/09 07:35:50;;;;;;;5.03;1.40;;;;;;;6.12;100.00;100605.81;4952658;29;20137;-74
2022/05/09 07:38:19;;;;;;;1.70;0.52;;;;;;;6.18;100.00;100606.06;4964275;28;20109;-74
2022/05/09 07:40:48;;;;;;;2.33;0.50;;;;;;;6.22;100.00;100595.13;4983130;28;20124;-74
2022/05/09 07:43:19;;;;;;;3.60;0.90;;;;;;;6.25;100.00;100600.41;4990677;28;20052;-75
2022/05/09 07:45:48;;;;;;;4.47;0.60;;;;;;;6.22;100.00;100601.16;4991459;28;20078;-74
2022/05/09 07:48:20;;;;;;;1.27;0.77;;;;;;;6.22;100.00;100607.97;4991072;28;20051;-73
2022/05/09 07:50:49;;;;;;;1.15;0.40;;;;;;;6.25;100.00;100610.69;4991495;28;20496;-74
2022/05/09 07:53:19;;;;;;;1.95;0.77;;;;;;;6.30;100.00;100609.22;4990144;28;20086;-74
2022/05/09 07:55:48;;;;;;;1.88;0.60;;;;;;;6.34;100.00;100612.78;4991595;28;20050;-74
2022/05/09 07:58:17;;;;;;;2.05;0.80;;;;;;;6.31;100.00;100615.22;4990510;28;20050;-74
2022/05/09 08:00:46;;;;;;;1.95;1.08;;;;;;;6.29;100.00;100615.16;4990996;28;20039;-74
2022/05/09 08:03:19;;;;;;;1.08;0.63;;;;;;;6.32;100.00;100617.84;4990698;28;20575;-74
2022/05/09 08:05:48;;;;;;;1.15;0.70;;;;;;;6.35;100.00;100620.56;4990984;28;20121;-73
2022/05/09 08:08:16;;;;;;;0.80;0.60;;;;;;;6.39;100.00;100625.03;4990739;28;20109;-74
2022/05/09 08:10:45;;;;;;;1.58;0.80;;;;;;;6.39;100.00;100625.03;4990375;28;20578;-74
2022/05/09 08:13:15;;;;;;;2.63;0.70;;;;;;;6.40;100.00;100629.34;4990279;28;20112;-74
2022/05/09 08:15:45;;;;;;;1.67;0.90;;;;;;;6.42;100.00;100630.31;4972325;28;20120;-74
2022/05/09 08:18:15;;;;;;;1.55;0.90;;;;;;;6.44;100.00;100626.13;4970681;28;20057;-74
2022/05/09 08:20:47;;;;;;;1.05;0.50;;;;;;;6.41;100.00;100632.78;4971033;28;20130;-74
2022/05/09 08:23:18;;;;;;;2.38;0.57;;;;;;;6.36;100.00;100635.16;4970387;28;20062;-74
2022/05/09 08:25:49;;;;;;;1.63;0.70;;;;;;;6.30;100.00;100627.19;4970760;28;20102;-74
2022/05/09 08:28:19;;;;;;;1.60;0.50;;;;;;;6.33;100.00;100632.47;4970793;28;20055;-74
2022/05/09 08:30:48;;;;;;;1.10;0.52;;;;;;;6.36;100.00;100640.31;4972781;28;20070;-73
2022/05/09 08:33:18;;;;;;;3.00;0.70;;;;;;;6.39;100.00;100642.13;4970913;28;20054;-75
2022/05/09 08:35:50;;;;;;;1.08;0.52;;;;;;;6.40;100.00;100644.78;4970925;28;20046;-75
2022/05/09 08:38:19;;;;;;;0.75;0.60;;;;;;;6.42;100.00;100645.72;4954994;28;20134;-74
2022/05/09 08:40:58;;;;;;;1.33;1.00;;;;;;;6.39;100.00;100640.47;4968308;28;20051;-74
2022/05/09 08:43:44;;;;;;;1.63;0.80;;;;;;;6.37;100.00;100646.31;4970017;28;20130;-74
2022/05/09 08:46:21;;;;;;;0.77;0.60;;;;;;;6.38;100.00;100654.09;4970414;28;20051;-74
2022/05/09 08:49:04;;;;;;;1.23;0.80;;;;;;;6.40;100.00;100651.59;4970785;28;20043;-75
2022/05/09 08:51:40;;;;;;;;;;;;;;;6.40;100.00;100654.19;4971062;28;20053;-74
2022/05/09 08:54:12;;;;;;;2.42;0.77;;;;;;;6.41;100.00;100648.22;4970189;28;19922;-75
2022/05/09 08:56:42;;;;;;;1.80;0.60;;;;;;;6.44;100.00;100654.38;4970281;28;20114;-75
2022/05/09 08:59:14;;;;;;;0.68;0.57;;;;;;;6.46;100.00;100657.03;4970516;28;20098;-75
2022/05/09 09:01:48;;;;;;;0.70;0.52;;;;;;;6.42;100.00;100658.56;4969968;28;20051;-74
2022/05/09 09:04:23;;;;;;;0.82;0.65;;;;;;;6.39;100.00;100658.44;4970000;28;20047;-75
2022/05/09 09:07:29;;;;;;;0.98;0.68;;;;;;;6.36;100.00;100666.00;4970123;28;20500;-74
2022/05/09 09:10:09;;;;;;;3.85;0.60;;;;;;;6.37;100.00;100661.72;4925160;28;20093;-75
2022/05/09 09:12:47;;;;;;;0.93;0.80;;;;;;;6.34;100.00;100661.59;4969829;28;20558;-74
2022/05/09 09:15:32;;;;;;;1.08;0.70;;;;;;;6.35;100.00;100674.53;4955093;28;20110;-74
2022/05/09 09:18:10;;;;;;;0.63;0.40;;;;;;;6.37;100.00;100664.31;4949927;29;20050;-75
2022/05/09 09:20:50;;;;;;;0.80;0.57;;;;;;;6.38;100.00;100674.66;4950934;29;20103;-73
2022/05/09 09:23:37;;;;;;;2.70;0.80;;;;;;;6.36;100.00;100670.28;4949928;29;20142;-74
2022/05/09 09:26:14;;;;;;;5.95;0.95;;;;;;;6.33;100.00;100675.28;4950374;29;20504;-74
2022/05/09 09:28:46;;;;;;;1.67;0.68;;;;;;;6.30;100.00;100670.88;4944271;29;20142;-74
2022/05/09 09:31:22;;;;;;;1.17;0.50;;;;;;;6.29;100.00;100674.25;4952280;28;20090;-74
2022/05/09 09:33:57;;;;;;;0.90;0.50;;;;;;;6.30;100.00;100676.03;4950729;29;20105;-75
2022/05/09 09:36:34;;;;;;;0.98;0.60;;;;;;;6.28;100.00;100677.63;4952162;28;20154;-74
2022/05/09 09:39:13;;;;;;;1.52;0.35;;;;;;;6.27;100.00;100674.16;4967218;28;20122;-74
2022/05/09 09:41:42;;;;;;;1.98;0.45;;;;;;;6.26;100.00;100679.25;4968853;28;20097;-75
2022/05/09 09:44:14;;;;;;;0.80;0.55;;;;;;;6.25;100.00;100682.63;4969826;28;20062;-75
2022/05/09 09:47:05;;;;;;;1.02;0.57;;;;;;;6.24;100.00;100678.31;4969776;28;20053;-74
2022/05/09 09:49:35;;;;;;;0.73;0.60;;;;;;;6.23;100.00;100685.13;4969916;28;20079;-73
2022/05/09 09:52:04;;;;;;;1.50;0.65;;;;;;;6.21;100.00;100689.31;4969258;28;20043;-74
2022/05/09 09:54:36;;;;;;;1.02;0.60;;;;;;;6.17;100.00;100676.28;4969762;28;20097;-74
2022/05/09 09:57:19;;;;;;;0.95;0.50;;;;;;;6.14;100.00;100689.84;4969010;28;20042;-73
2022/05/09 09:59:47;;;;;;;;;;;;;;;6.11;100.00;100686.25;4970265;28;20082;-73
2022/05/09 10:02:23;;;;;;;1.17;1.08;;;;;;;6.07;100.00;100693.81;4968775;28;19930;-74
2022/05/09 10:04:52;;;;;;;0.93;0.68;;;;;;;6.01;100.00;100693.53;4960150;28;20055;-74
2022/05/09 10:07:29;;;;;;;0.95;0.52;;;;;;;5.90;100.00;100686.97;4969176;28;20047;-75
2022/05/09 10:10:14;;;;;;;0.75;0.50;;;;;;;5.78;100.00;100697.56;4969020;28;20055;-75
2022/05/09 10:12:44;;;;;;;0.65;0.47;;;;;;;5.74;100.00;100694.75;4969535;28;20082;-74
2022/05/09 10:15:34;;;;;;;1.00;0.63;;;;;;;5.73;100.00;100700.72;4969351;28;20423;-74
2022/05/09 10:18:21;;;;;;;0.70;0.38;;;;;;;5.71;100.00;100702.34;4968938;28;20134;-75
2022/05/09 10:20:52;;;;;;;1.35;0.75;;;;;;;5.69;100.00;100702.25;4969479;28;20051;-72
2022/05/09 10:26:24;;;;;;;0.77;0.50;;;;;;;5.62;100.00;100706.19;4969167;28;20066;-76
2022/05/09 10:28:55;;;;;;;1.98;0.60;;;;;;;5.55;100.00;100701.56;4972934;28;20234;-75
2022/05/09 10:31:29;;;;;;;1.00;0.60;;;;;;;5.46;100.00;100706.25;4970457;28;20051;-75
2022/05/09 10:34:04;;;;;;;1.35;0.70;;;;;;;5.37;100.00;100705.81;4969954;28;20066;-75
2022/05/09 10:36:38;;;;;;;0.70;0.50;;;;;;;5.31;100.00;100708.06;4969968;28;20497;-74
2022/05/09 10:39:13;;;;;;;0.80;0.63;;;;;;;5.29;100.00;100709.66;4968772;28;20129;-75
2022/05/09 10:41:48;;;;;;;2.72;0.63;;;;;;;5.29;100.00;100702.88;4969941;28;20058;-75
2022/05/09 10:44:21;;;;;;;2.35;0.80;;;;;;;5.30;100.00;100709.75;4972524;28;20057;-74
2022/05/09 10:46:53;;;;;;;1.48;0.80;;;;;;;5.30;100.00;100708.88;4972630;28;20074;-72
2022/05/09 10:49:32;;;;;;;1.52;0.90;;;;;;;5.30;100.00;100712.31;4972780;28;20286;-72
2022/05/09 10:52:11;;;;;;;1.13;0.40;;;;;;;5.28;100.00;100713.91;4972226;28;20086;-73
2022/05/09 10:54:50;;;;;;;1.30;0.77;;;;;;;5.23;100.00;100712.81;4972642;28;20067;-75
2022/05/09 10:57:30;;;;;;;1.23;0.73;;;;;;;5.20;100.00;100716.13;4972596;28;20057;-73
2022/05/09 11:00:06;;;;;;;1.20;0.70;;;;;;;5.18;100.00;100727.09;4972265;28;20055;-74
2022/05/09 11:02:39;;;;;;;5.47;1.10;;;;;;;5.17;100.00;100718.50;4972157;28;20086;-74
2022/05/09 11:05:08;;;;;;;1.52;1.02;;;;;;;5.17;100.00;100723.63;4971976;28;20047;-72
2022/05/09 11:07:45;;;;;;;1.08;0.60;;;;;;;5.17;100.00;100727.88;4965000;28;20078;-74
2022/05/09 11:10:27;;;;;;;1.27;0.85;;;;;;;5.15;100.00;100727.81;4971735;28;20067;-72
2022/05/09 11:13:10;;;;;;;1.08;0.63;;;;;;;5.13;100.00;100729.44;4971878;28;20484;-72
2022/05/09 11:15:50;;;;;;;2.17;1.10;;;;;;;5.13;100.00;100732.00;4972025;28;20125;-72
2022/05/09 11:18:30;;;;;;;1.00;0.55;;;;;;;5.13;100.00;100732.00;4971814;28;20389;-74
2022/05/09 11:21:10;;;;;;;0.95;0.50;;;;;;;5.16;100.00;100733.84;4971991;28;20506;-72
2022/05/09 11:23:51;;;;;;;0.63;0.50;;;;;;;5.15;100.00;100730.38;4972009;28;20050;-75
2022/05/09 11:26:29;;;;;;;1.33;0.80;;;;;;;5.11;100.00;100735.25;4972242;28;20055;-72
2022/05/09 11:29:35;;;;;;;1.40;0.88;;;;;;;5.10;100.00;100736.09;4973401;28;20047;-72
2022/05/09 11:32:37;;;;;;;1.80;1.00;;;;;;;5.17;100.00;100739.03;4972437;28;20066;-73
2022/05/09 11:35:27;;;;;;;2.03;1.00;;;;;;;5.24;100.00;100730.88;4971953;28;20153;-72
2022/05/09 11:38:13;;;;;;;1.13;0.85;;;;;;;5.33;100.00;100727.84;4972349;28;20082;-72
2022/05/09 11:40:50;;;;;;;2.10;1.10;;;;;;;5.39;100.00;100735.00;4971783;28;20082;-74
2022/05/09 11:43:37;;;;;;;1.65;0.90;;;;;;;5.39;100.00;100730.75;4970417;28;20113;-74
2022/05/09 11:46:33;;;;;;;2.25;0.93;;;;;;;5.44;100.00;100729.28;4971807;28;20046;-74
2022/05/09 11:49:26;;;;;;;2.45;1.45;;;;;;;5.49;100.00;100732.06;4971345;28;20138;-74
2022/05/09 11:51:55;;;;;;;;;;;;;;;5.55;100.00;100727.25;4971809;28;20106;-71
2022/05/09 11:54:30;;;;;;;1.15;0.82;;;;;;;5.58;100.00;100726.50;4970787;28;19993;-74
2022/05/09 11:57:03;;;;;;;2.33;1.23;;;;;;;5.58;100.00;100727.38;4971339;28;20051;-74
2022/05/09 11:59:34;;;;;;;1.58;1.02;;;;;;;5.62;100.00;100728.44;4971435;28;20135;-74